createdAt,value
2024-02-28T00:00:45.151Z,74.71
2024-02-28T00:01:45.083Z,78.50
2024-02-28T00:02:45.044Z,79.55
2024-02-28T00:03:45.075Z,77.65
2024-02-28T00:04:45.586Z,76.57
2024-02-28T00:05:45.611Z,76.18
2024-02-28T00:06:45.203Z,73.93
2024-02-28T00:58:07.144Z,77.04
2024-02-28T00:58:45.304Z,81.70
2024-02-28T00:59:45.287Z,107.67
2024-02-28T01:00:45.368Z,144.12
2024-02-28T01:01:45.413Z,184.61
2024-02-28T01:02:45.312Z,224.25
2024-02-28T01:03:46.254Z,188.95
2024-02-28T01:04:45.301Z,170.65
2024-02-28T01:05:45.297Z,156.46
2024-02-28T01:06:45.316Z,145.18
2024-02-28T01:07:45.308Z,137.06
2024-02-28T01:08:45.314Z,129.79
2024-02-28T01:09:45.377Z,121.81
2024-02-28T01:10:48.157Z,116.36
2024-02-28T01:11:45.318Z,113.33
2024-02-28T01:12:45.329Z,108.40
2024-02-28T01:13:45.338Z,102.32
2024-02-28T01:14:45.308Z,101.36
2024-02-28T01:15:45.480Z,97.62
2024-02-28T01:16:45.320Z,94.34
2024-02-28T01:17:45.371Z,90.67
2024-02-28T01:18:45.345Z,89.27
2024-02-28T01:19:45.384Z,86.73
2024-02-28T01:20:45.314Z,83.90
2024-02-28T01:21:45.391Z,82.50
2024-02-28T01:22:45.311Z,80.37
2024-02-28T01:23:45.333Z,78.43
2024-02-28T01:24:45.339Z,77.09
2024-02-28T01:25:45.328Z,76.37
2024-02-28T01:26:45.324Z,75.00
2024-02-28T01:27:45.424Z,73.35
2024-02-28T01:28:45.343Z,73.37
2024-02-28T01:29:45.651Z,71.54
2024-02-28T01:30:48.167Z,72.20
2024-02-28T01:31:45.395Z,71.49
2024-02-28T01:32:48.157Z,71.84
2024-02-28T01:33:45.399Z,71.58
2024-02-28T01:34:45.322Z,70.45
2024-02-28T01:35:45.327Z,69.39
2024-02-28T01:36:45.367Z,69.42
2024-02-28T01:37:48.124Z,67.85
2024-02-28T01:38:45.360Z,66.77
2024-02-28T01:39:45.439Z,66.74
2024-02-28T01:40:45.351Z,66.05
2024-02-28T01:41:45.363Z,65.38
2024-02-28T01:42:46.216Z,64.92
2024-02-28T01:43:45.332Z,64.92
2024-02-28T01:44:45.332Z,63.44
2024-02-28T01:45:45.379Z,63.13
2024-02-28T01:46:45.341Z,63.32
2024-02-28T01:47:45.350Z,62.28
2024-02-28T01:48:52.170Z,60.77
2024-02-28T01:49:45.395Z,60.91
2024-02-28T01:50:45.343Z,61.18
2024-02-28T01:51:45.403Z,61.64
2024-02-28T01:52:45.338Z,62.04
2024-02-28T01:53:45.339Z,61.84
2024-02-28T01:54:45.421Z,61.34
2024-02-28T01:55:45.342Z,61.73
2024-02-28T01:56:45.342Z,59.86
2024-02-28T01:57:45.389Z,60.66
2024-02-28T01:58:45.340Z,59.05
2024-02-28T01:59:45.344Z,60.62
2024-02-28T02:00:45.433Z,59.71
2024-02-28T02:01:45.460Z,60.12
2024-02-28T02:02:45.345Z,57.52
2024-02-28T02:03:45.464Z,57.84
2024-02-28T02:04:45.431Z,57.78
2024-02-28T02:05:45.366Z,58.53
2024-02-28T02:06:45.405Z,58.78
2024-02-28T02:07:45.362Z,57.43
2024-02-28T02:08:45.356Z,57.03
2024-02-28T02:09:45.417Z,58.22
2024-02-28T02:10:45.366Z,58.16
2024-02-28T02:11:45.356Z,56.61
2024-02-28T02:12:45.372Z,58.75
2024-02-28T02:13:45.359Z,58.59
2024-02-28T02:14:45.360Z,55.51
2024-02-28T02:15:45.385Z,55.27
2024-02-28T02:16:48.167Z,56.14
2024-02-28T02:17:45.413Z,54.73
2024-02-28T02:18:45.437Z,55.11
2024-02-28T02:19:45.413Z,56.85
2024-02-28T02:20:45.366Z,57.36
2024-02-28T02:21:45.464Z,56.13
2024-02-28T02:22:48.147Z,56.60
2024-02-28T02:23:45.368Z,56.72
2024-02-28T02:24:46.161Z,56.65
2024-02-28T02:25:45.369Z,57.19
2024-02-28T02:26:45.376Z,55.93
2024-02-28T02:27:46.168Z,57.37
2024-02-28T02:28:45.374Z,54.99
2024-02-28T02:29:45.375Z,56.95
2024-02-28T02:30:45.433Z,55.54
2024-02-28T02:31:45.378Z,54.34
2024-02-28T02:32:45.425Z,54.65
2024-02-28T02:33:45.473Z,54.78
2024-02-28T02:34:45.375Z,55.73
2024-02-28T02:35:45.381Z,54.87
2024-02-28T02:36:45.398Z,54.75
2024-02-28T02:37:45.382Z,53.91
2024-02-28T02:38:45.387Z,54.32
2024-02-28T02:39:45.442Z,53.59
2024-02-28T02:40:45.385Z,55.69
2024-02-28T02:41:45.387Z,54.56
2024-02-28T02:42:45.431Z,55.99
2024-02-28T02:43:45.395Z,53.43
2024-02-28T02:44:45.390Z,53.11
2024-02-28T02:45:45.435Z,54.39
2024-02-28T02:46:45.662Z,53.66
2024-02-28T02:47:45.416Z,55.16
2024-02-28T02:48:45.466Z,52.46
2024-02-28T02:49:45.400Z,54.69
2024-02-28T02:50:45.426Z,53.23
2024-02-28T02:51:45.749Z,54.56
2024-02-28T02:52:45.472Z,52.79
2024-02-28T02:53:45.511Z,52.35
2024-02-28T02:54:45.544Z,52.33
2024-02-28T02:55:45.562Z,55.18
2024-02-28T02:56:45.604Z,52.95
2024-02-28T02:57:45.639Z,53.54
2024-02-28T02:58:45.669Z,55.07
2024-02-28T02:59:45.699Z,52.35
2024-02-28T03:00:45.736Z,52.43
2024-02-28T03:01:45.800Z,53.98
2024-02-28T03:02:45.784Z,51.68
2024-02-28T03:03:45.856Z,53.86
2024-02-28T03:04:45.867Z,52.48
2024-02-28T03:05:45.886Z,53.57
2024-02-28T03:06:45.972Z,52.67
2024-02-28T03:07:45.956Z,52.19
2024-02-28T03:08:46.679Z,52.05
2024-02-28T03:09:46.037Z,51.97
2024-02-28T03:10:46.702Z,51.62
2024-02-28T03:11:46.094Z,52.50
2024-02-28T03:12:46.118Z,51.62
2024-02-28T03:13:46.148Z,51.49
2024-02-28T03:14:46.184Z,52.03
2024-02-28T03:15:46.240Z,52.22
2024-02-28T03:16:46.272Z,54.19
2024-02-28T03:17:46.312Z,52.26
2024-02-28T03:18:46.353Z,52.53
2024-02-28T03:19:46.346Z,52.99
2024-02-28T03:20:46.409Z,54.05
2024-02-28T03:21:47.225Z,52.73
2024-02-28T03:22:46.452Z,53.36
2024-02-28T03:23:49.174Z,52.54
2024-02-28T03:24:46.605Z,53.43
2024-02-28T03:25:46.479Z,54.12
2024-02-28T03:26:46.480Z,53.54
2024-02-28T03:27:46.560Z,54.63
2024-02-28T03:28:46.492Z,52.40
2024-02-28T03:29:46.481Z,51.49
2024-02-28T03:30:46.571Z,53.19
2024-02-28T03:31:46.484Z,51.36
2024-02-28T03:32:46.711Z,51.06
2024-02-28T03:33:47.232Z,52.36
2024-02-28T03:34:47.177Z,52.58
2024-02-28T03:35:46.490Z,53.75
2024-02-28T03:36:46.552Z,52.75
2024-02-28T03:37:46.490Z,52.23
2024-02-28T03:38:46.498Z,52.74
2024-02-28T03:39:46.721Z,51.18
2024-02-28T03:40:46.497Z,53.46
2024-02-28T03:41:47.187Z,53.88
2024-02-28T03:42:46.558Z,51.79
2024-02-28T03:43:46.501Z,50.65
2024-02-28T03:44:46.512Z,51.72
2024-02-28T03:45:46.538Z,52.49
2024-02-28T03:46:46.501Z,52.97
2024-02-28T03:47:46.593Z,52.65
2024-02-28T03:48:46.600Z,53.16
2024-02-28T03:49:47.203Z,54.22
2024-02-28T03:50:46.679Z,51.59
2024-02-28T03:51:46.737Z,53.71
2024-02-28T03:52:47.208Z,52.03
2024-02-28T03:53:46.699Z,51.34
2024-02-28T03:54:47.768Z,51.92
2024-02-28T03:55:46.752Z,52.11
2024-02-28T03:56:46.790Z,53.36
2024-02-28T03:57:46.845Z,52.83
2024-02-28T03:58:46.859Z,50.63
2024-02-28T03:59:46.892Z,50.51
2024-02-28T04:00:47.158Z,52.03
2024-02-28T04:01:47.222Z,52.17
2024-02-28T04:02:47.002Z,52.96
2024-02-28T04:03:47.726Z,53.43
2024-02-28T04:04:47.148Z,53.96
2024-02-28T04:05:54.189Z,50.00
2024-02-28T04:06:55.224Z,50.00
2024-02-28T04:07:55.214Z,50.00
2024-02-28T04:08:55.183Z,50.00
2024-02-28T04:09:55.325Z,50.00
2024-02-28T04:10:55.262Z,50.52
2024-02-28T04:11:55.187Z,50.00
2024-02-28T04:12:55.229Z,50.00
2024-02-28T04:13:55.174Z,50.84
2024-02-28T04:14:55.183Z,53.25
2024-02-28T04:15:55.232Z,51.38
2024-02-28T04:16:55.183Z,50.71
2024-02-28T04:17:55.241Z,50.00
2024-02-28T04:18:55.201Z,52.42
2024-02-28T04:19:55.180Z,53.12
2024-02-28T04:20:55.193Z,54.64
2024-02-28T04:21:55.245Z,53.56
2024-02-28T04:22:55.182Z,51.97
2024-02-28T04:23:55.202Z,52.56
2024-02-28T04:24:55.209Z,52.54
2024-02-28T04:25:55.186Z,53.70
2024-02-28T04:26:55.187Z,53.10
2024-02-28T04:27:55.215Z,52.45
2024-02-28T04:28:55.179Z,52.53
2024-02-28T04:29:55.185Z,52.34
2024-02-28T04:31:02.258Z,50.00
2024-02-28T04:32:03.214Z,50.00
2024-02-28T04:33:03.245Z,50.00
2024-02-28T04:34:03.370Z,50.00
2024-02-28T04:35:03.214Z,50.00
2024-02-28T04:36:03.325Z,50.00
2024-02-28T04:37:03.323Z,52.24
2024-02-28T04:38:03.227Z,50.32
2024-02-28T04:39:03.247Z,50.11
2024-02-28T04:40:03.295Z,51.02
2024-02-28T04:41:03.240Z,50.54
2024-02-28T04:42:03.227Z,54.78
2024-02-28T04:43:03.232Z,54.14
2024-02-28T04:44:03.224Z,52.04
2024-02-28T04:45:03.225Z,51.92
2024-02-28T04:46:03.284Z,51.78
2024-02-28T04:47:03.233Z,52.68
2024-02-28T04:48:03.280Z,51.12
2024-02-28T04:49:03.247Z,53.54
2024-02-28T04:50:03.251Z,51.79
2024-02-28T04:51:03.234Z,50.57
2024-02-28T04:52:03.266Z,52.13
2024-02-28T04:53:03.254Z,52.68
2024-02-28T04:54:03.236Z,51.55
2024-02-28T04:55:03.306Z,53.75
2024-02-28T04:56:03.236Z,52.02
2024-02-28T04:57:03.241Z,51.89
2024-02-28T04:58:03.283Z,51.40
2024-02-28T04:59:03.263Z,51.21
2024-02-28T05:00:03.237Z,53.14
2024-02-28T05:01:03.469Z,51.68
2024-02-28T05:02:03.315Z,52.85
2024-02-28T05:03:03.238Z,52.19
2024-02-28T05:04:03.324Z,51.29
2024-02-28T05:05:03.253Z,52.44
2024-02-28T05:06:03.250Z,51.06
2024-02-28T05:07:03.372Z,50.62
2024-02-28T05:08:03.836Z,52.76
2024-02-28T05:09:03.331Z,50.54
2024-02-28T05:10:03.415Z,51.89
2024-02-28T05:11:03.360Z,51.59
2024-02-28T05:12:03.245Z,52.74
2024-02-28T05:13:03.285Z,51.29
2024-02-28T05:14:03.251Z,52.35
2024-02-28T05:15:03.834Z,51.98
2024-02-28T05:16:03.454Z,50.37
2024-02-28T05:17:03.255Z,52.04
2024-02-28T05:18:03.294Z,52.05
2024-02-28T05:19:03.270Z,53.42
2024-02-28T05:20:03.259Z,54.21
2024-02-28T05:21:03.265Z,52.40
2024-02-28T05:22:03.360Z,52.34
2024-02-28T05:23:03.256Z,53.63
2024-02-28T05:24:03.253Z,53.22
2024-02-28T05:25:03.329Z,50.62
2024-02-28T05:26:03.259Z,54.83
2024-02-28T05:27:03.282Z,54.31
2024-02-28T05:28:03.304Z,52.31
2024-02-28T05:29:03.252Z,53.97
2024-02-28T05:30:03.258Z,53.62
2024-02-28T05:31:03.272Z,52.73
2024-02-28T05:32:03.259Z,54.53
2024-02-28T05:33:03.301Z,52.88
2024-02-28T05:34:03.419Z,53.67
2024-02-28T05:35:03.261Z,53.47
2024-02-28T05:36:03.292Z,53.33
2024-02-28T05:37:03.341Z,52.69
2024-02-28T05:38:03.344Z,51.38
2024-02-28T05:39:03.263Z,54.43
2024-02-28T05:40:03.311Z,52.67
2024-02-28T05:41:03.270Z,51.50
2024-02-28T05:42:03.293Z,53.28
2024-02-28T05:43:03.445Z,52.38
2024-02-28T05:44:03.267Z,53.43
2024-02-28T05:45:03.282Z,54.03
2024-02-28T05:46:03.334Z,53.76
2024-02-28T05:47:03.356Z,54.27
2024-02-28T05:48:03.351Z,56.10
2024-02-28T05:49:03.418Z,53.30
2024-02-28T05:50:03.359Z,52.11
2024-02-28T05:51:02.382Z,55.24
2024-02-28T05:52:03.403Z,54.23
2024-02-28T05:53:03.409Z,53.96
2024-02-28T05:54:03.430Z,54.94
2024-02-28T05:55:04.523Z,59.08
2024-02-28T05:56:03.886Z,51.56
2024-02-28T05:57:04.356Z,55.46
2024-02-28T05:58:03.554Z,53.11
2024-02-28T05:59:03.505Z,54.00
2024-02-28T06:00:03.482Z,53.16
2024-02-28T06:01:03.623Z,54.22
2024-02-28T06:02:03.519Z,55.61
2024-02-28T06:03:10.353Z,53.39
2024-02-28T06:04:04.422Z,53.55
2024-02-28T06:05:04.356Z,54.00
2024-02-28T06:06:03.541Z,54.54
2024-02-28T06:07:03.548Z,55.04
2024-02-28T06:08:03.548Z,55.63
2024-02-28T06:09:03.540Z,53.15
2024-02-28T06:10:03.634Z,54.08
2024-02-28T06:11:03.552Z,53.34
2024-02-28T06:12:03.548Z,52.06
2024-02-28T06:13:03.583Z,54.02
2024-02-28T06:14:03.554Z,53.08
2024-02-28T06:15:03.598Z,54.02
2024-02-28T06:16:03.568Z,53.15
2024-02-28T06:17:03.570Z,52.93
2024-02-28T06:18:03.604Z,53.92
2024-02-28T06:19:06.000Z,53.87
2024-02-28T06:20:03.561Z,53.92
2024-02-28T06:21:03.576Z,54.27
2024-02-28T06:22:03.648Z,54.35
2024-02-28T06:23:10.180Z,52.76
2024-02-28T06:24:03.585Z,53.98
2024-02-28T06:25:03.603Z,54.49
2024-02-28T06:26:03.577Z,54.86
2024-02-28T06:27:04.718Z,54.99
2024-02-28T06:28:03.590Z,56.14
2024-02-28T06:29:03.569Z,55.70
2024-02-28T06:30:03.879Z,55.43
2024-02-28T06:31:03.657Z,51.75
2024-02-28T06:32:03.574Z,55.51
2024-02-28T06:33:03.936Z,56.37
2024-02-28T06:34:03.746Z,56.32
2024-02-28T06:35:03.566Z,59.37
2024-02-28T06:36:03.885Z,56.08
2024-02-28T06:37:03.946Z,56.83
2024-02-28T06:38:03.571Z,58.39
2024-02-28T06:39:03.581Z,59.92
2024-02-28T06:40:03.620Z,52.39
2024-02-28T06:41:03.887Z,52.13
2024-02-28T06:42:03.962Z,53.32
2024-02-28T06:43:03.643Z,53.76
2024-02-28T06:44:03.620Z,53.34
2024-02-28T06:45:03.660Z,60.79
2024-02-28T06:46:03.814Z,50.00
2024-02-28T06:47:03.905Z,55.52
2024-02-28T06:48:03.791Z,53.96
2024-02-28T06:49:03.830Z,51.66
2024-02-28T06:50:03.795Z,51.37
2024-02-28T06:51:03.822Z,54.17
2024-02-28T06:52:03.902Z,50.73
2024-02-28T06:53:03.862Z,52.94
2024-02-28T06:54:03.899Z,52.24
2024-02-28T06:55:03.976Z,52.45
2024-02-28T06:56:03.942Z,54.54
2024-02-28T06:57:04.772Z,52.65
2024-02-28T06:58:04.018Z,50.65
2024-02-28T06:59:04.022Z,56.70
2024-02-28T07:00:04.060Z,51.26
2024-02-28T07:01:04.181Z,49.08
2024-02-28T07:02:05.733Z,54.53
2024-02-28T07:03:04.752Z,52.40
2024-02-28T07:04:04.379Z,52.23
2024-02-28T07:05:36.141Z,52.08
2024-02-28T07:06:07.510Z,52.26
2024-02-28T07:07:04.711Z,52.28
2024-02-28T07:08:04.713Z,52.73
2024-02-28T07:09:07.953Z,53.26
2024-02-28T07:10:04.772Z,52.37
2024-02-28T07:11:04.716Z,54.87
2024-02-28T07:12:04.678Z,60.24
2024-02-28T07:13:04.739Z,70.60
2024-02-28T07:14:04.691Z,78.33
2024-02-28T07:15:04.676Z,76.00
2024-02-28T07:16:04.756Z,74.82
2024-02-28T07:17:05.354Z,71.34
2024-02-28T07:18:04.390Z,66.38
2024-02-28T07:19:04.462Z,64.44
2024-02-28T07:20:04.312Z,60.92
2024-02-28T07:21:04.317Z,57.72
2024-02-28T07:22:04.377Z,53.09
2024-02-28T07:23:04.322Z,50.44
2024-02-28T07:24:04.314Z,50.89
2024-02-28T07:25:04.492Z,50.44
2024-02-28T07:26:12.530Z,51.25
2024-02-28T07:27:04.350Z,48.47
2024-02-28T07:28:04.508Z,49.27
2024-02-28T07:29:04.399Z,47.42
2024-02-28T07:30:04.333Z,52.27
2024-02-28T07:31:04.374Z,59.03
2024-02-28T07:32:04.402Z,61.13
2024-02-28T07:33:04.410Z,61.04
2024-02-28T07:34:04.367Z,60.73
2024-02-28T07:35:04.361Z,58.01
2024-02-28T07:36:04.367Z,55.70
2024-02-28T07:37:04.469Z,52.86
2024-02-28T07:38:04.373Z,52.96
2024-02-28T07:39:04.340Z,55.82
2024-02-28T07:40:04.403Z,59.35
2024-02-28T07:41:04.336Z,63.62
2024-02-28T07:42:05.900Z,71.22
2024-02-28T07:43:04.775Z,71.39
2024-02-28T07:44:04.716Z,73.84
2024-02-28T07:45:05.737Z,74.26
2024-02-28T07:46:04.835Z,74.20
2024-02-28T07:47:04.898Z,73.76
2024-02-28T07:48:04.737Z,74.12
2024-02-28T07:49:04.840Z,77.79
2024-02-28T07:50:04.743Z,76.18
2024-02-28T07:51:04.738Z,77.89
2024-02-28T07:52:04.967Z,74.10
2024-02-28T07:53:04.725Z,77.74
2024-02-28T07:54:05.848Z,75.21
2024-02-28T07:55:04.899Z,71.59
2024-02-28T07:56:04.904Z,71.79
2024-02-28T07:57:04.968Z,70.52
2024-02-28T07:58:05.042Z,78.07
2024-02-28T07:59:05.052Z,78.16
2024-02-28T08:00:05.103Z,77.68
2024-02-28T08:01:05.237Z,80.02
2024-02-28T08:02:05.753Z,73.66
2024-02-28T08:03:05.236Z,77.19
2024-02-28T08:04:05.737Z,81.37
2024-02-28T08:05:05.682Z,81.68
2024-02-28T08:06:05.907Z,78.34
2024-02-28T08:07:05.973Z,82.30
2024-02-28T08:08:05.662Z,85.78
2024-02-28T08:09:05.689Z,83.64
2024-02-28T08:10:05.742Z,78.71
2024-02-28T08:11:05.711Z,76.80
2024-02-28T08:12:05.670Z,79.23
2024-02-28T08:13:05.762Z,83.12
2024-02-28T08:14:05.732Z,79.81
2024-02-28T08:15:06.421Z,82.88
2024-02-28T08:16:05.922Z,77.74
2024-02-28T08:17:05.886Z,77.48
2024-02-28T08:18:06.002Z,82.01
2024-02-28T08:19:06.106Z,83.75
2024-02-28T08:20:06.437Z,82.96
2024-02-28T08:21:06.073Z,83.09
2024-02-28T08:22:06.140Z,78.20
2024-02-28T08:23:06.770Z,76.03
2024-02-28T08:24:06.216Z,80.34
2024-02-28T08:25:06.249Z,75.90
2024-02-28T08:26:06.290Z,77.60
2024-02-28T08:27:06.359Z,83.80
2024-02-28T08:28:06.469Z,76.03
2024-02-28T08:29:06.948Z,81.96
2024-02-28T08:30:06.492Z,75.38
2024-02-28T08:31:06.621Z,81.94
2024-02-28T08:32:06.584Z,77.25
2024-02-28T08:33:06.639Z,73.18
2024-02-28T08:34:07.005Z,80.23
2024-02-28T08:35:06.766Z,79.63
2024-02-28T08:36:06.757Z,83.02
2024-02-28T08:37:06.922Z,81.77
2024-02-28T08:38:06.893Z,85.96
2024-02-28T08:39:06.907Z,96.29
2024-02-28T08:40:06.952Z,88.13
2024-02-28T08:41:06.950Z,80.40
2024-02-28T08:42:07.689Z,74.87
2024-02-28T08:43:07.037Z,71.65
2024-02-28T08:44:07.079Z,74.31
2024-02-28T08:45:07.695Z,70.28
2024-02-28T08:46:07.118Z,74.06
2024-02-28T08:47:07.155Z,70.73
2024-02-28T08:48:08.449Z,72.50
2024-02-28T08:49:07.351Z,73.53
2024-02-28T08:50:07.723Z,73.22
2024-02-28T08:51:07.320Z,79.44
2024-02-28T08:52:07.794Z,79.91
2024-02-28T08:53:07.665Z,84.59
2024-02-28T08:54:07.929Z,84.81
2024-02-28T08:55:07.594Z,85.45
2024-02-28T08:56:07.712Z,90.37
2024-02-28T08:57:07.471Z,111.99
2024-02-28T08:58:08.027Z,132.53
2024-02-28T08:59:07.470Z,134.16
2024-02-28T09:00:07.503Z,132.50
2024-02-28T09:01:07.691Z,127.35
2024-02-28T09:05:45.985Z,118.46
2024-02-28T09:06:24.593Z,120.33
2024-02-28T09:07:22.006Z,121.25
2024-02-28T09:08:21.352Z,125.83
2024-02-28T09:09:21.382Z,127.54
2024-02-28T09:10:21.404Z,125.21
2024-02-28T09:11:21.396Z,119.80
2024-02-28T09:12:21.526Z,110.16
2024-02-28T09:13:21.981Z,103.96
2024-02-28T09:14:21.697Z,99.06
2024-02-28T09:15:21.730Z,93.90
2024-02-28T09:16:21.740Z,90.65
2024-02-28T09:17:21.697Z,89.57
2024-02-28T09:18:22.005Z,88.67
2024-02-28T09:19:21.998Z,87.13
2024-02-28T09:20:21.733Z,88.26
2024-02-28T09:21:21.721Z,87.90
2024-02-28T09:22:21.706Z,86.31
2024-02-28T09:23:21.995Z,86.62
2024-02-28T09:24:21.698Z,87.42
2024-02-28T09:25:22.041Z,87.11
2024-02-28T09:26:21.779Z,81.00
2024-02-28T09:27:21.710Z,85.33
2024-02-28T09:28:21.995Z,84.53
2024-02-28T09:29:21.736Z,88.39
2024-02-28T09:30:21.731Z,82.60
2024-02-28T09:31:21.717Z,90.24
2024-02-28T09:32:21.600Z,90.42
2024-02-28T09:33:22.041Z,88.68
2024-02-28T09:34:21.660Z,88.40
2024-02-28T09:35:21.708Z,89.71
2024-02-28T09:36:22.370Z,92.85
2024-02-28T09:37:21.754Z,89.85
2024-02-28T09:38:21.823Z,90.88
2024-02-28T09:39:21.830Z,90.15
2024-02-28T09:40:21.825Z,89.21
2024-02-28T09:41:21.861Z,90.13
2024-02-28T09:42:22.134Z,92.27
2024-02-28T09:43:22.033Z,91.91
2024-02-28T09:44:21.888Z,91.71
2024-02-28T09:45:22.017Z,93.20
2024-02-28T09:46:29.302Z,93.69
2024-02-28T09:47:21.904Z,93.74
2024-02-28T09:48:21.960Z,93.98
2024-02-28T09:49:21.998Z,94.26
2024-02-28T09:50:21.908Z,94.12
2024-02-28T09:51:21.939Z,95.66
2024-02-28T09:52:21.917Z,94.66
2024-02-28T09:53:21.910Z,97.20
2024-02-28T09:54:22.053Z,95.49
2024-02-28T09:55:21.907Z,93.36
2024-02-28T09:56:21.925Z,93.66
2024-02-28T09:57:21.963Z,98.34
2024-02-28T09:58:21.982Z,94.95
2024-02-28T09:59:24.926Z,97.62
2024-02-28T10:00:21.956Z,97.77
2024-02-28T10:01:22.032Z,98.32
2024-02-28T10:02:21.955Z,98.24
2024-02-28T10:03:21.979Z,100.11
2024-02-28T10:04:21.940Z,99.80
2024-02-28T10:05:21.935Z,98.87
2024-02-28T10:06:21.984Z,99.26
2024-02-28T10:07:22.005Z,99.68
2024-02-28T10:08:21.935Z,100.39
2024-02-28T10:09:22.021Z,98.74
2024-02-28T10:10:21.948Z,98.99
2024-02-28T10:11:22.140Z,100.05
2024-02-28T10:12:22.021Z,99.94
2024-02-28T10:13:21.953Z,99.86
2024-02-28T10:14:21.965Z,98.15
2024-02-28T10:15:22.001Z,100.59
2024-02-28T10:16:21.941Z,100.49
2024-02-28T10:17:22.004Z,101.18
2024-02-28T10:18:22.110Z,99.94
2024-02-28T10:19:22.009Z,100.65
2024-02-28T10:20:21.949Z,100.70
2024-02-28T10:21:21.977Z,98.75
2024-02-28T10:22:21.939Z,100.35
2024-02-28T10:23:21.951Z,102.48
2024-02-28T10:24:21.978Z,101.41
2024-02-28T10:25:22.773Z,100.07
2024-02-28T10:26:21.945Z,102.04
2024-02-28T10:27:22.061Z,103.41
2024-02-28T10:28:22.321Z,101.25
2024-02-28T10:29:22.009Z,100.49
2024-02-28T10:30:22.055Z,103.18
2024-02-28T10:31:21.964Z,102.04
2024-02-28T10:32:22.030Z,103.99
2024-02-28T10:33:22.016Z,100.84
2024-02-28T10:34:22.191Z,104.18
2024-02-28T10:35:22.014Z,102.69
2024-02-28T10:36:22.015Z,103.31
2024-02-28T10:37:22.012Z,105.17
2024-02-28T10:38:21.955Z,102.86
2024-02-28T10:39:22.115Z,104.22
2024-02-28T10:40:22.062Z,105.26
2024-02-28T10:41:22.002Z,104.06
2024-02-28T10:42:22.123Z,103.82
2024-02-28T10:43:22.094Z,105.90
2024-02-28T10:44:22.014Z,104.01
2024-02-28T10:45:34.425Z,103.88
2024-02-28T10:46:35.079Z,104.05
2024-02-28T10:47:22.051Z,104.16
2024-02-28T10:48:22.071Z,105.09
2024-02-28T10:49:22.024Z,105.76
2024-02-28T10:50:22.030Z,106.56
2024-02-28T10:51:22.035Z,106.75
2024-02-28T10:52:22.002Z,107.29
2024-02-28T10:53:21.995Z,106.96
2024-02-28T10:54:22.071Z,107.71
2024-02-28T10:55:22.113Z,107.32
2024-02-28T10:56:22.010Z,105.97
2024-02-28T10:57:22.059Z,108.17
2024-02-28T10:58:22.099Z,107.58
2024-02-28T10:59:22.036Z,106.61
2024-02-28T11:00:22.091Z,105.60
2024-02-28T11:01:22.176Z,105.71
2024-02-28T11:02:22.043Z,106.40
2024-02-28T11:03:22.969Z,106.16
2024-02-28T11:04:22.023Z,106.49
2024-02-28T11:05:22.039Z,108.86
2024-02-28T11:06:22.052Z,111.57
2024-02-28T11:07:22.051Z,114.24
2024-02-28T11:08:22.031Z,113.09
2024-02-28T11:09:22.030Z,104.15
2024-02-28T11:10:22.026Z,105.43
2024-02-28T11:11:22.107Z,101.31
2024-02-28T11:12:22.048Z,97.79
2024-02-28T11:13:22.027Z,90.06
2024-02-28T11:14:22.018Z,86.71
2024-02-28T11:15:22.102Z,83.94
2024-02-28T11:16:22.058Z,81.11
2024-02-28T11:17:22.062Z,78.43
2024-02-28T11:18:22.898Z,78.12
2024-02-28T11:19:22.033Z,77.02
2024-02-28T11:20:22.052Z,75.95
2024-02-28T11:21:22.054Z,72.63
2024-02-28T11:22:22.073Z,68.40
2024-02-28T11:23:22.115Z,66.29
2024-02-28T11:24:22.862Z,64.46
2024-02-28T11:25:22.203Z,59.15
2024-02-28T11:26:22.033Z,56.62
2024-02-28T11:27:22.800Z,59.51
2024-02-28T11:28:22.025Z,62.07
2024-02-28T11:29:22.067Z,61.79
2024-02-28T11:30:22.552Z,61.86
2024-02-28T11:31:22.075Z,61.04
2024-02-28T11:32:22.539Z,61.46
2024-02-28T11:33:22.267Z,62.36
2024-02-28T11:34:22.309Z,64.71
2024-02-28T11:35:22.554Z,62.11
2024-02-28T11:36:22.299Z,56.41
2024-02-28T11:37:22.542Z,53.91
2024-02-28T11:38:22.363Z,50.67
2024-02-28T11:39:22.685Z,49.59
2024-02-28T11:40:22.427Z,51.58
2024-02-28T11:41:22.497Z,50.00
2024-02-28T11:42:22.552Z,51.34
2024-02-28T11:43:23.194Z,50.51
2024-02-28T11:44:22.579Z,52.25
2024-02-28T11:45:22.653Z,54.60
2024-02-28T11:46:22.619Z,54.46
2024-02-28T11:47:22.672Z,56.59
2024-02-28T11:48:22.717Z,58.88
2024-02-28T11:49:22.724Z,60.74
2024-02-28T11:50:22.871Z,60.16
2024-02-28T11:51:23.082Z,58.23
2024-02-28T11:52:23.040Z,63.27
2024-02-28T11:53:22.926Z,64.84
2024-02-28T11:54:22.961Z,67.31
2024-02-28T11:55:23.011Z,70.17
2024-02-28T11:56:23.139Z,71.14
2024-02-28T11:57:23.565Z,80.40
2024-02-28T11:58:23.114Z,74.58
2024-02-28T11:59:23.105Z,77.90
2024-02-28T12:00:23.168Z,81.14
2024-02-28T12:01:23.255Z,81.57
2024-02-28T12:02:23.557Z,85.27
2024-02-28T12:03:23.163Z,88.57
2024-02-28T12:04:23.546Z,87.65
2024-02-28T12:05:23.158Z,89.17
2024-02-28T12:06:23.246Z,94.10
2024-02-28T12:07:23.172Z,96.93
2024-02-28T12:08:24.466Z,99.58
2024-02-28T12:09:28.161Z,100.33
2024-02-28T12:10:23.249Z,100.51
2024-02-28T12:11:23.233Z,101.49
2024-02-28T12:12:23.622Z,103.05
2024-02-28T12:13:23.184Z,107.55
2024-02-28T12:14:23.553Z,113.36
2024-02-28T12:15:23.232Z,116.96
2024-02-28T12:16:23.328Z,118.54
2024-02-28T12:17:23.192Z,122.48
2024-02-28T12:18:23.619Z,125.65
2024-02-28T12:19:23.193Z,128.34
2024-02-28T12:20:23.200Z,126.80
2024-02-28T12:21:23.286Z,130.25
2024-02-28T12:22:23.597Z,129.41
2024-02-28T12:23:23.195Z,130.71
2024-02-28T12:24:23.209Z,130.19
2024-02-28T12:25:23.197Z,135.36
2024-02-28T12:26:23.215Z,135.21
2024-02-28T12:27:23.568Z,137.30
2024-02-28T12:28:23.216Z,137.30
2024-02-28T12:29:23.578Z,137.54
2024-02-28T12:30:23.386Z,138.83
2024-02-28T12:31:23.564Z,139.26
2024-02-28T12:32:23.464Z,141.94
2024-02-28T12:33:25.234Z,140.04
2024-02-28T12:34:23.550Z,141.93
2024-02-28T12:35:23.532Z,142.54
2024-02-28T12:36:23.547Z,143.91
2024-02-28T12:37:23.550Z,140.75
2024-02-28T12:38:25.308Z,142.41
2024-02-28T12:39:23.577Z,142.52
2024-02-28T12:40:23.552Z,142.73
2024-02-28T12:41:23.588Z,143.61
2024-02-28T12:42:23.601Z,143.73
2024-02-28T12:43:23.607Z,144.60
2024-02-28T12:44:23.561Z,148.30
2024-02-28T12:45:23.730Z,147.79
2024-02-28T12:46:23.540Z,145.10
2024-02-28T12:47:23.540Z,146.56
2024-02-28T12:48:23.670Z,146.91
2024-02-28T12:49:23.548Z,145.88
2024-02-28T12:50:23.562Z,144.67
2024-02-28T12:51:23.579Z,145.27
2024-02-28T12:52:23.555Z,143.55
2024-02-28T12:53:23.553Z,143.41
2024-02-28T12:54:23.633Z,144.76
2024-02-28T12:55:23.560Z,146.08
2024-02-28T12:56:23.562Z,143.85
2024-02-28T12:57:23.582Z,146.20
2024-02-28T12:58:23.552Z,145.62
2024-02-28T12:59:23.575Z,147.65
2024-02-28T13:00:23.594Z,144.48
2024-02-28T13:01:23.780Z,146.84
2024-02-28T13:02:23.568Z,155.33
2024-02-28T13:03:23.590Z,165.16
2024-02-28T13:04:23.579Z,165.03
2024-02-28T13:05:23.574Z,159.32
2024-02-28T13:06:23.599Z,151.22
2024-02-28T13:07:23.561Z,151.36
2024-02-28T13:08:23.576Z,143.94
2024-02-28T13:09:23.718Z,140.45
2024-02-28T13:10:23.621Z,139.98
2024-02-28T13:11:23.617Z,143.83
2024-02-28T13:12:24.172Z,142.32
2024-02-28T13:13:38.573Z,143.66
2024-02-28T13:14:24.244Z,143.96
2024-02-28T13:15:24.282Z,145.31
2024-02-28T13:16:23.760Z,149.20
2024-02-28T13:17:24.648Z,155.29
2024-02-28T13:18:23.683Z,166.36
2024-02-28T13:19:23.652Z,166.38
2024-02-28T13:20:23.781Z,167.04
2024-02-28T13:21:23.842Z,169.82
2024-02-28T13:22:24.232Z,163.22
2024-02-28T13:23:24.240Z,167.98
2024-02-28T13:24:24.274Z,166.01
2024-02-28T13:25:24.230Z,164.35
2024-02-28T13:26:24.254Z,161.74
2024-02-28T13:27:24.589Z,156.61
2024-02-28T13:28:24.582Z,164.34
2024-02-28T13:29:24.588Z,161.41
2024-02-28T13:30:24.310Z,153.09
2024-02-28T13:31:24.321Z,154.86
2024-02-28T13:32:24.452Z,156.86
2024-02-28T13:33:24.671Z,154.15
2024-02-28T13:34:24.478Z,147.61
2024-02-28T13:35:24.487Z,153.91
2024-02-28T13:36:25.148Z,144.98
2024-02-28T13:37:24.522Z,148.60
2024-02-28T13:38:24.541Z,147.86
2024-02-28T13:39:24.672Z,146.98
2024-02-28T13:40:24.553Z,150.41